sensor_id;sensor_type;location;lat;lon;timestamp;temperature;humidity
37456;DHT22;23316;50.718;7.328;2022-07-23T00:01:32;20.70;57.60
37456;DHT22;23316;50.718;7.328;2022-07-23T00:04:00;20.70;57.80
37456;DHT22;23316;50.718;7.328;2022-07-23T00:06:27;20.70;57.90
37456;DHT22;23316;50.718;7.328;2022-07-23T00:08:56;20.60;58.00
37456;DHT22;23316;50.718;7.328;2022-07-23T00:11:24;20.60;58.20
37456;DHT22;23316;50.718;7.328;2022-07-23T00:13:51;20.50;58.20
37456;DHT22;23316;50.718;7.328;2022-07-23T00:16:21;20.60;58.40
37456;DHT22;23316;50.718;7.328;2022-07-23T00:18:48;20.50;58.40
37456;DHT22;23316;50.718;7.328;2022-07-23T00:21:15;20.50;58.60
37456;DHT22;23316;50.718;7.328;2022-07-23T00:23:43;20.50;58.60
37456;DHT22;23316;50.718;7.328;2022-07-23T00:26:12;20.50;58.60
37456;DHT22;23316;50.718;7.328;2022-07-23T00:28:39;20.50;58.60
37456;DHT22;23316;50.718;7.328;2022-07-23T00:31:07;20.50;58.60
37456;DHT22;23316;50.718;7.328;2022-07-23T00:33:34;20.50;58.70
37456;DHT22;23316;50.718;7.328;2022-07-23T00:36:02;20.50;58.70
37456;DHT22;23316;50.718;7.328;2022-07-23T00:38:30;20.50;58.70
37456;DHT22;23316;50.718;7.328;2022-07-23T00:40:58;20.50;58.60
37456;DHT22;23316;50.718;7.328;2022-07-23T00:43:26;20.50;58.60
37456;DHT22;23316;50.718;7.328;2022-07-23T00:45:54;20.60;58.50
37456;DHT22;23316;50.718;7.328;2022-07-23T00:48:21;20.50;58.40
37456;DHT22;23316;50.718;7.328;2022-07-23T00:50:49;20.60;58.40
37456;DHT22;23316;50.718;7.328;2022-07-23T00:53:16;20.60;58.30
37456;DHT22;23316;50.718;7.328;2022-07-23T00:55:44;20.60;58.20
37456;DHT22;23316;50.718;7.328;2022-07-23T00:58:11;20.60;58.30
37456;DHT22;23316;50.718;7.328;2022-07-23T01:00:41;20.60;58.40
37456;DHT22;23316;50.718;7.328;2022-07-23T01:03:08;20.60;58.40
37456;DHT22;23316;50.718;7.328;2022-07-23T01:05:36;20.60;58.40
37456;DHT22;23316;50.718;7.328;2022-07-23T01:08:05;20.60;58.50
37456;DHT22;23316;50.718;7.328;2022-07-23T01:10:33;20.60;58.50
37456;DHT22;23316;50.718;7.328;2022-07-23T01:13:02;20.60;58.60
37456;DHT22;23316;50.718;7.328;2022-07-23T01:15:30;20.60;58.80
37456;DHT22;23316;50.718;7.328;2022-07-23T01:17:59;20.60;59.10
37456;DHT22;23316;50.718;7.328;2022-07-23T01:20:26;20.70;58.90
37456;DHT22;23316;50.718;7.328;2022-07-23T01:22:55;20.70;58.50
37456;DHT22;23316;50.718;7.328;2022-07-23T01:25:23;20.70;58.30
37456;DHT22;23316;50.718;7.328;2022-07-23T01:27:51;20.70;58.30
37456;DHT22;23316;50.718;7.328;2022-07-23T01:30:19;20.60;58.30
37456;DHT22;23316;50.718;7.328;2022-07-23T01:32:47;20.60;58.30
37456;DHT22;23316;50.718;7.328;2022-07-23T01:35:15;20.60;58.20
37456;DHT22;23316;50.718;7.328;2022-07-23T01:37:42;20.60;58.20
37456;DHT22;23316;50.718;7.328;2022-07-23T01:40:11;20.50;58.10
37456;DHT22;23316;50.718;7.328;2022-07-23T01:42:39;20.50;58.10
37456;DHT22;23316;50.718;7.328;2022-07-23T01:45:07;20.50;58.20
37456;DHT22;23316;50.718;7.328;2022-07-23T01:47:34;20.50;58.20
37456;DHT22;23316;50.718;7.328;2022-07-23T01:50:02;20.40;58.30
37456;DHT22;23316;50.718;7.328;2022-07-23T01:52:29;20.40;58.50
37456;DHT22;23316;50.718;7.328;2022-07-23T01:54:57;20.40;58.60
37456;DHT22;23316;50.718;7.328;2022-07-23T01:57:25;20.30;58.50
37456;DHT22;23316;50.718;7.328;2022-07-23T01:59:53;20.40;58.70
37456;DHT22;23316;50.718;7.328;2022-07-23T02:02:20;20.40;58.60
37456;DHT22;23316;50.718;7.328;2022-07-23T02:04:48;20.40;58.70
37456;DHT22;23316;50.718;7.328;2022-07-23T02:07:15;20.40;58.50
37456;DHT22;23316;50.718;7.328;2022-07-23T02:09:42;20.40;58.40
37456;DHT22;23316;50.718;7.328;2022-07-23T02:12:10;20.40;58.20
37456;DHT22;23316;50.718;7.328;2022-07-23T02:14:39;20.40;58.30
37456;DHT22;23316;50.718;7.328;2022-07-23T02:17:06;20.50;58.30
37456;DHT22;23316;50.718;7.328;2022-07-23T02:19:34;20.50;58.40
37456;DHT22;23316;50.718;7.328;2022-07-23T02:22:01;20.50;58.40
37456;DHT22;23316;50.718;7.328;2022-07-23T02:24:28;20.50;58.10
37456;DHT22;23316;50.718;7.328;2022-07-23T02:26:56;20.50;58.00
37456;DHT22;23316;50.718;7.328;2022-07-23T02:29:23;20.50;58.20
37456;DHT22;23316;50.718;7.328;2022-07-23T02:31:52;20.40;58.30
37456;DHT22;23316;50.718;7.328;2022-07-23T02:34:19;20.50;58.40
37456;DHT22;23316;50.718;7.328;2022-07-23T02:36:47;20.40;58.30
37456;DHT22;23316;50.718;7.328;2022-07-23T02:39:14;20.40;58.20
37456;DHT22;23316;50.718;7.328;2022-07-23T02:41:42;20.30;58.20
37456;DHT22;23316;50.718;7.328;2022-07-23T02:44:09;20.40;58.30
37456;DHT22;23316;50.718;7.328;2022-07-23T02:46:39;20.30;58.30
37456;DHT22;23316;50.718;7.328;2022-07-23T02:49:08;20.30;58.30
37456;DHT22;23316;50.718;7.328;2022-07-23T02:51:35;20.30;58.30
37456;DHT22;23316;50.718;7.328;2022-07-23T02:54:03;20.30;58.30
37456;DHT22;23316;50.718;7.328;2022-07-23T02:56:31;20.30;58.30
37456;DHT22;23316;50.718;7.328;2022-07-23T02:58:59;20.30;58.30
37456;DHT22;23316;50.718;7.328;2022-07-23T03:01:26;20.20;58.20
37456;DHT22;23316;50.718;7.328;2022-07-23T03:03:54;20.20;58.30
37456;DHT22;23316;50.718;7.328;2022-07-23T03:06:22;20.20;58.30
37456;DHT22;23316;50.718;7.328;2022-07-23T03:08:50;20.20;58.30
37456;DHT22;23316;50.718;7.328;2022-07-23T03:11:17;20.10;58.40
37456;DHT22;23316;50.718;7.328;2022-07-23T03:13:45;20.10;58.40
37456;DHT22;23316;50.718;7.328;2022-07-23T03:16:12;20.10;58.50
37456;DHT22;23316;50.718;7.328;2022-07-23T03:18:40;20.10;58.50
37456;DHT22;23316;50.718;7.328;2022-07-23T03:21:08;20.10;58.60
37456;DHT22;23316;50.718;7.328;2022-07-23T03:23:42;20.10;58.70
37456;DHT22;23316;50.718;7.328;2022-07-23T03:26:10;20.00;58.80
37456;DHT22;23316;50.718;7.328;2022-07-23T03:28:37;20.00;58.80
37456;DHT22;23316;50.718;7.328;2022-07-23T03:31:05;20.00;58.80
37456;DHT22;23316;50.718;7.328;2022-07-23T03:33:32;20.00;58.80
37456;DHT22;23316;50.718;7.328;2022-07-23T03:36:00;19.90;59.00
37456;DHT22;23316;50.718;7.328;2022-07-23T03:38:27;20.00;59.00
37456;DHT22;23316;50.718;7.328;2022-07-23T03:40:56;19.90;59.10
37456;DHT22;23316;50.718;7.328;2022-07-23T03:43:23;19.90;59.30
37456;DHT22;23316;50.718;7.328;2022-07-23T03:45:51;19.90;59.30
37456;DHT22;23316;50.718;7.328;2022-07-23T03:48:19;19.80;59.40
37456;DHT22;23316;50.718;7.328;2022-07-23T03:50:46;19.80;59.50
37456;DHT22;23316;50.718;7.328;2022-07-23T03:53:14;19.80;59.50
37456;DHT22;23316;50.718;7.328;2022-07-23T03:55:41;19.80;59.50
37456;DHT22;23316;50.718;7.328;2022-07-23T03:58:10;19.80;59.50
37456;DHT22;23316;50.718;7.328;2022-07-23T04:00:37;19.80;59.50
37456;DHT22;23316;50.718;7.328;2022-07-23T04:03:05;19.90;59.50
37456;DHT22;23316;50.718;7.328;2022-07-23T04:05:32;19.90;59.50
37456;DHT22;23316;50.718;7.328;2022-07-23T04:08:00;19.90;59.50
37456;DHT22;23316;50.718;7.328;2022-07-23T04:10:29;19.90;59.40
37456;DHT22;23316;50.718;7.328;2022-07-23T04:12:57;19.90;59.40
37456;DHT22;23316;50.718;7.328;2022-07-23T04:15:26;19.90;59.40
37456;DHT22;23316;50.718;7.328;2022-07-23T04:17:53;19.90;59.40
37456;DHT22;23316;50.718;7.328;2022-07-23T04:20:21;20.00;59.50
37456;DHT22;23316;50.718;7.328;2022-07-23T04:22:50;20.00;59.50
37456;DHT22;23316;50.718;7.328;2022-07-23T04:25:19;19.90;59.50
37456;DHT22;23316;50.718;7.328;2022-07-23T04:27:47;19.90;59.50
37456;DHT22;23316;50.718;7.328;2022-07-23T04:30:15;20.00;59.70
37456;DHT22;23316;50.718;7.328;2022-07-23T04:32:45;20.00;59.90
37456;DHT22;23316;50.718;7.328;2022-07-23T04:35:13;20.00;60.00
37456;DHT22;23316;50.718;7.328;2022-07-23T04:37:42;20.00;60.00
37456;DHT22;23316;50.718;7.328;2022-07-23T04:40:11;20.00;60.00
37456;DHT22;23316;50.718;7.328;2022-07-23T04:42:40;20.00;60.10
37456;DHT22;23316;50.718;7.328;2022-07-23T04:45:08;20.00;60.20
37456;DHT22;23316;50.718;7.328;2022-07-23T04:47:36;20.00;60.10
37456;DHT22;23316;50.718;7.328;2022-07-23T04:50:05;20.00;60.30
37456;DHT22;23316;50.718;7.328;2022-07-23T04:52:33;20.00;60.30
37456;DHT22;23316;50.718;7.328;2022-07-23T04:55:00;20.00;60.20
37456;DHT22;23316;50.718;7.328;2022-07-23T04:57:27;20.10;60.40
37456;DHT22;23316;50.718;7.328;2022-07-23T04:59:55;20.10;60.50
37456;DHT22;23316;50.718;7.328;2022-07-23T05:02:22;20.10;60.50
37456;DHT22;23316;50.718;7.328;2022-07-23T05:04:50;20.10;60.60
37456;DHT22;23316;50.718;7.328;2022-07-23T05:07:18;20.10;60.70
37456;DHT22;23316;50.718;7.328;2022-07-23T05:09:46;20.10;60.70
37456;DHT22;23316;50.718;7.328;2022-07-23T05:12:13;20.10;60.70
37456;DHT22;23316;50.718;7.328;2022-07-23T05:14:41;20.00;60.80
37456;DHT22;23316;50.718;7.328;2022-07-23T05:17:08;20.00;60.90
37456;DHT22;23316;50.718;7.328;2022-07-23T05:19:36;20.00;61.10
37456;DHT22;23316;50.718;7.328;2022-07-23T05:22:03;20.00;62.10
37456;DHT22;23316;50.718;7.328;2022-07-23T05:24:32;20.00;62.00
37456;DHT22;23316;50.718;7.328;2022-07-23T05:27:00;20.00;62.40
37456;DHT22;23316;50.718;7.328;2022-07-23T05:29:27;20.00;62.90
37456;DHT22;23316;50.718;7.328;2022-07-23T05:31:54;19.90;63.30
37456;DHT22;23316;50.718;7.328;2022-07-23T05:34:22;19.90;63.70
37456;DHT22;23316;50.718;7.328;2022-07-23T05:36:49;19.90;64.30
37456;DHT22;23316;50.718;7.328;2022-07-23T05:39:17;19.90;64.50
37456;DHT22;23316;50.718;7.328;2022-07-23T05:41:46;19.80;64.60
37456;DHT22;23316;50.718;7.328;2022-07-23T05:44:13;19.80;64.60
37456;DHT22;23316;50.718;7.328;2022-07-23T05:46:40;19.80;64.90
37456;DHT22;23316;50.718;7.328;2022-07-23T05:49:08;19.80;65.00
37456;DHT22;23316;50.718;7.328;2022-07-23T05:51:35;19.80;65.00
37456;DHT22;23316;50.718;7.328;2022-07-23T05:54:03;19.90;65.40
37456;DHT22;23316;50.718;7.328;2022-07-23T05:56:30;19.90;65.60
37456;DHT22;23316;50.718;7.328;2022-07-23T05:58:59;19.80;65.30
37456;DHT22;23316;50.718;7.328;2022-07-23T06:01:27;19.80;65.50
37456;DHT22;23316;50.718;7.328;2022-07-23T06:03:54;19.80;65.80
37456;DHT22;23316;50.718;7.328;2022-07-23T06:06:22;19.80;66.00
37456;DHT22;23316;50.718;7.328;2022-07-23T06:08:49;19.80;65.90
37456;DHT22;23316;50.718;7.328;2022-07-23T06:11:16;19.80;65.90
37456;DHT22;23316;50.718;7.328;2022-07-23T06:13:44;19.80;66.10
37456;DHT22;23316;50.718;7.328;2022-07-23T06:16:13;19.70;66.00
37456;DHT22;23316;50.718;7.328;2022-07-23T06:18:40;19.70;66.20
37456;DHT22;23316;50.718;7.328;2022-07-23T06:21:07;19.70;66.30
37456;DHT22;23316;50.718;7.328;2022-07-23T06:23:35;19.80;66.80
37456;DHT22;23316;50.718;7.328;2022-07-23T06:26:02;19.70;66.60
37456;DHT22;23316;50.718;7.328;2022-07-23T06:28:30;19.70;66.60
37456;DHT22;23316;50.718;7.328;2022-07-23T06:30:57;19.70;66.70
37456;DHT22;23316;50.718;7.328;2022-07-23T06:33:26;19.80;66.50
37456;DHT22;23316;50.718;7.328;2022-07-23T06:35:53;19.80;66.30
37456;DHT22;23316;50.718;7.328;2022-07-23T06:38:21;19.80;66.00
37456;DHT22;23316;50.718;7.328;2022-07-23T06:40:48;19.80;65.80
37456;DHT22;23316;50.718;7.328;2022-07-23T06:43:16;19.90;66.00
37456;DHT22;23316;50.718;7.328;2022-07-23T06:45:46;19.90;66.00
37456;DHT22;23316;50.718;7.328;2022-07-23T06:48:13;19.90;65.80
37456;DHT22;23316;50.718;7.328;2022-07-23T06:50:43;19.90;65.90
37456;DHT22;23316;50.718;7.328;2022-07-23T06:53:11;20.00;65.80
37456;DHT22;23316;50.718;7.328;2022-07-23T06:55:38;20.00;65.40
37456;DHT22;23316;50.718;7.328;2022-07-23T06:58:06;20.00;65.30
37456;DHT22;23316;50.718;7.328;2022-07-23T07:00:35;20.10;65.40
37456;DHT22;23316;50.718;7.328;2022-07-23T07:03:02;20.10;65.50
37456;DHT22;23316;50.718;7.328;2022-07-23T07:05:30;20.20;65.90
37456;DHT22;23316;50.718;7.328;2022-07-23T07:07:59;20.20;65.90
37456;DHT22;23316;50.718;7.328;2022-07-23T07:10:27;20.30;65.90
37456;DHT22;23316;50.718;7.328;2022-07-23T07:12:54;20.40;65.80
37456;DHT22;23316;50.718;7.328;2022-07-23T07:15:22;20.50;65.40
37456;DHT22;23316;50.718;7.328;2022-07-23T07:17:49;20.50;64.40
37456;DHT22;23316;50.718;7.328;2022-07-23T07:20:17;20.60;63.90
37456;DHT22;23316;50.718;7.328;2022-07-23T07:22:44;20.60;63.80
37456;DHT22;23316;50.718;7.328;2022-07-23T07:25:13;20.70;63.80
37456;DHT22;23316;50.718;7.328;2022-07-23T07:27:40;20.70;63.60
37456;DHT22;23316;50.718;7.328;2022-07-23T07:30:10;20.80;63.60
37456;DHT22;23316;50.718;7.328;2022-07-23T07:32:38;20.80;62.70
37456;DHT22;23316;50.718;7.328;2022-07-23T07:35:06;20.90;62.10
37456;DHT22;23316;50.718;7.328;2022-07-23T07:37:34;20.90;61.70
37456;DHT22;23316;50.718;7.328;2022-07-23T07:40:03;21.00;60.10
37456;DHT22;23316;50.718;7.328;2022-07-23T07:42:32;21.00;59.10
37456;DHT22;23316;50.718;7.328;2022-07-23T07:44:59;21.00;58.80
37456;DHT22;23316;50.718;7.328;2022-07-23T07:47:26;21.10;58.70
37456;DHT22;23316;50.718;7.328;2022-07-23T07:49:54;21.10;56.10
37456;DHT22;23316;50.718;7.328;2022-07-23T07:52:22;21.10;56.70
37456;DHT22;23316;50.718;7.328;2022-07-23T07:54:49;21.20;56.90
37456;DHT22;23316;50.718;7.328;2022-07-23T07:57:17;21.20;56.70
37456;DHT22;23316;50.718;7.328;2022-07-23T07:59:45;21.30;56.70
37456;DHT22;23316;50.718;7.328;2022-07-23T08:02:13;21.30;56.60
37456;DHT22;23316;50.718;7.328;2022-07-23T08:04:41;21.40;56.90
37456;DHT22;23316;50.718;7.328;2022-07-23T08:07:09;21.50;56.90
37456;DHT22;23316;50.718;7.328;2022-07-23T08:09:36;21.50;56.50
37456;DHT22;23316;50.718;7.328;2022-07-23T08:12:04;21.60;55.40
37456;DHT22;23316;50.718;7.328;2022-07-23T08:14:31;21.60;55.10
37456;DHT22;23316;50.718;7.328;2022-07-23T08:17:00;21.70;54.30
37456;DHT22;23316;50.718;7.328;2022-07-23T08:19:28;21.70;54.00
37456;DHT22;23316;50.718;7.328;2022-07-23T08:21:55;21.70;54.00
37456;DHT22;23316;50.718;7.328;2022-07-23T08:24:22;21.80;54.20
37456;DHT22;23316;50.718;7.328;2022-07-23T08:26:50;21.80;54.20
37456;DHT22;23316;50.718;7.328;2022-07-23T08:29:17;21.90;54.20
37456;DHT22;23316;50.718;7.328;2022-07-23T08:31:45;22.00;54.70
37456;DHT22;23316;50.718;7.328;2022-07-23T08:34:14;22.00;53.40
37456;DHT22;23316;50.718;7.328;2022-07-23T08:36:41;22.00;53.40
37456;DHT22;23316;50.718;7.328;2022-07-23T08:39:09;22.00;52.80
37456;DHT22;23316;50.718;7.328;2022-07-23T08:41:39;22.10;52.20
37456;DHT22;23316;50.718;7.328;2022-07-23T08:44:08;22.10;51.30
37456;DHT22;23316;50.718;7.328;2022-07-23T08:46:36;22.10;51.80
37456;DHT22;23316;50.718;7.328;2022-07-23T08:49:05;22.10;51.90
37456;DHT22;23316;50.718;7.328;2022-07-23T08:51:35;22.20;52.30
37456;DHT22;23316;50.718;7.328;2022-07-23T08:54:02;22.20;51.60
37456;DHT22;23316;50.718;7.328;2022-07-23T08:56:31;22.30;51.90
37456;DHT22;23316;50.718;7.328;2022-07-23T08:58:59;22.30;52.00
37456;DHT22;23316;50.718;7.328;2022-07-23T09:01:26;22.40;51.00
37456;DHT22;23316;50.718;7.328;2022-07-23T09:03:54;22.40;50.80
37456;DHT22;23316;50.718;7.328;2022-07-23T09:06:21;22.50;50.50
37456;DHT22;23316;50.718;7.328;2022-07-23T09:08:50;22.50;50.60
37456;DHT22;23316;50.718;7.328;2022-07-23T09:11:18;22.50;50.60
37456;DHT22;23316;50.718;7.328;2022-07-23T09:13:47;22.50;50.50
37456;DHT22;23316;50.718;7.328;2022-07-23T09:16:18;22.50;50.80
37456;DHT22;23316;50.718;7.328;2022-07-23T09:18:47;22.50;51.20
37456;DHT22;23316;50.718;7.328;2022-07-23T09:21:20;22.60;51.30
37456;DHT22;23316;50.718;7.328;2022-07-23T09:23:53;22.70;50.60
37456;DHT22;23316;50.718;7.328;2022-07-23T09:26:32;22.70;51.30
37456;DHT22;23316;50.718;7.328;2022-07-23T09:29:04;22.80;51.50
37456;DHT22;23316;50.718;7.328;2022-07-23T09:31:34;22.80;51.50
37456;DHT22;23316;50.718;7.328;2022-07-23T09:34:11;22.90;51.20
37456;DHT22;23316;50.718;7.328;2022-07-23T09:36:39;23.00;50.70
37456;DHT22;23316;50.718;7.328;2022-07-23T09:39:10;23.00;51.50
37456;DHT22;23316;50.718;7.328;2022-07-23T09:41:40;23.10;51.70
37456;DHT22;23316;50.718;7.328;2022-07-23T09:44:10;23.10;50.80
37456;DHT22;23316;50.718;7.328;2022-07-23T09:46:38;23.20;50.00
37456;DHT22;23316;50.718;7.328;2022-07-23T09:49:20;23.20;49.80
37456;DHT22;23316;50.718;7.328;2022-07-23T09:51:52;23.20;48.60
37456;DHT22;23316;50.718;7.328;2022-07-23T09:54:27;23.20;48.20
37456;DHT22;23316;50.718;7.328;2022-07-23T09:56:57;23.30;48.30
37456;DHT22;23316;50.718;7.328;2022-07-23T09:59:26;23.20;48.40
37456;DHT22;23316;50.718;7.328;2022-07-23T10:01:55;23.20;48.20
37456;DHT22;23316;50.718;7.328;2022-07-23T10:04:24;23.30;48.20
37456;DHT22;23316;50.718;7.328;2022-07-23T10:06:53;23.30;48.90
37456;DHT22;23316;50.718;7.328;2022-07-23T10:09:27;23.40;49.30
37456;DHT22;23316;50.718;7.328;2022-07-23T10:11:57;23.40;49.00
37456;DHT22;23316;50.718;7.328;2022-07-23T10:14:29;23.40;48.60
37456;DHT22;23316;50.718;7.328;2022-07-23T10:16:58;23.50;48.40
37456;DHT22;23316;50.718;7.328;2022-07-23T10:19:26;23.50;48.00
37456;DHT22;23316;50.718;7.328;2022-07-23T10:21:58;23.60;47.50
37456;DHT22;23316;50.718;7.328;2022-07-23T10:24:41;23.60;47.90
37456;DHT22;23316;50.718;7.328;2022-07-23T10:27:27;23.70;48.50
37456;DHT22;23316;50.718;7.328;2022-07-23T10:30:02;23.70;48.10
37456;DHT22;23316;50.718;7.328;2022-07-23T10:32:40;23.80;48.70
37456;DHT22;23316;50.718;7.328;2022-07-23T10:35:19;23.80;46.50
37456;DHT22;23316;50.718;7.328;2022-07-23T10:37:51;23.90;45.80
37456;DHT22;23316;50.718;7.328;2022-07-23T10:40:22;23.90;45.50
37456;DHT22;23316;50.718;7.328;2022-07-23T10:42:51;24.00;46.10
37456;DHT22;23316;50.718;7.328;2022-07-23T10:45:25;24.00;45.50
37456;DHT22;23316;50.718;7.328;2022-07-23T10:47:52;24.10;45.70
37456;DHT22;23316;50.718;7.328;2022-07-23T10:50:22;24.10;46.30
37456;DHT22;23316;50.718;7.328;2022-07-23T10:53:15;24.20;46.70
37456;DHT22;23316;50.718;7.328;2022-07-23T10:55:49;24.20;46.60
37456;DHT22;23316;50.718;7.328;2022-07-23T10:58:19;24.30;45.50
37456;DHT22;23316;50.718;7.328;2022-07-23T11:00:47;24.30;45.10
37456;DHT22;23316;50.718;7.328;2022-07-23T11:03:32;24.40;44.90
37456;DHT22;23316;50.718;7.328;2022-07-23T11:06:03;24.40;43.80
37456;DHT22;23316;50.718;7.328;2022-07-23T11:08:31;24.40;45.10
37456;DHT22;23316;50.718;7.328;2022-07-23T11:11:12;24.50;44.00
37456;DHT22;23316;50.718;7.328;2022-07-23T11:13:45;24.50;43.90
37456;DHT22;23316;50.718;7.328;2022-07-23T11:16:15;24.60;45.00
37456;DHT22;23316;50.718;7.328;2022-07-23T11:19:00;24.60;45.50
37456;DHT22;23316;50.718;7.328;2022-07-23T11:21:44;24.70;44.00
37456;DHT22;23316;50.718;7.328;2022-07-23T11:24:13;24.70;42.80
37456;DHT22;23316;50.718;7.328;2022-07-23T11:29:44;24.70;43.70
37456;DHT22;23316;50.718;7.328;2022-07-23T11:32:31;24.80;43.30
37456;DHT22;23316;50.718;7.328;2022-07-23T11:34:59;24.90;44.30
37456;DHT22;23316;50.718;7.328;2022-07-23T11:37:31;24.90;42.60
37456;DHT22;23316;50.718;7.328;2022-07-23T11:40:05;25.00;42.50
37456;DHT22;23316;50.718;7.328;2022-07-23T11:42:36;25.00;42.20
37456;DHT22;23316;50.718;7.328;2022-07-23T11:45:06;25.00;41.80
37456;DHT22;23316;50.718;7.328;2022-07-23T11:47:34;25.10;41.90
37456;DHT22;23316;50.718;7.328;2022-07-23T11:50:04;25.20;42.50
37456;DHT22;23316;50.718;7.328;2022-07-23T11:52:33;25.20;42.80
37456;DHT22;23316;50.718;7.328;2022-07-23T11:55:02;25.30;43.60
37456;DHT22;23316;50.718;7.328;2022-07-23T11:57:31;25.30;42.90
37456;DHT22;23316;50.718;7.328;2022-07-23T12:00:06;25.40;43.10
37456;DHT22;23316;50.718;7.328;2022-07-23T12:02:35;25.40;42.90
37456;DHT22;23316;50.718;7.328;2022-07-23T12:05:03;25.40;43.00
37456;DHT22;23316;50.718;7.328;2022-07-23T12:07:32;25.40;43.00
37456;DHT22;23316;50.718;7.328;2022-07-23T12:10:03;25.50;43.70
37456;DHT22;23316;50.718;7.328;2022-07-23T12:12:36;25.50;43.20
37456;DHT22;23316;50.718;7.328;2022-07-23T12:15:07;25.60;43.40
37456;DHT22;23316;50.718;7.328;2022-07-23T12:17:36;25.60;42.80
37456;DHT22;23316;50.718;7.328;2022-07-23T12:20:05;25.70;42.20
37456;DHT22;23316;50.718;7.328;2022-07-23T12:22:35;25.70;42.20
37456;DHT22;23316;50.718;7.328;2022-07-23T12:25:06;25.70;41.90
37456;DHT22;23316;50.718;7.328;2022-07-23T12:27:34;25.70;42.00
37456;DHT22;23316;50.718;7.328;2022-07-23T12:30:23;25.80;41.70
37456;DHT22;23316;50.718;7.328;2022-07-23T12:32:54;25.80;42.10
37456;DHT22;23316;50.718;7.328;2022-07-23T12:35:28;25.90;42.20
37456;DHT22;23316;50.718;7.328;2022-07-23T12:38:01;25.90;42.30
37456;DHT22;23316;50.718;7.328;2022-07-23T12:40:30;26.00;42.60
37456;DHT22;23316;50.718;7.328;2022-07-23T12:43:00;26.00;42.60
37456;DHT22;23316;50.718;7.328;2022-07-23T12:45:42;26.00;43.00
37456;DHT22;23316;50.718;7.328;2022-07-23T12:48:21;26.00;42.50
37456;DHT22;23316;50.718;7.328;2022-07-23T12:50:55;26.10;41.10
37456;DHT22;23316;50.718;7.328;2022-07-23T12:53:25;26.10;41.10
37456;DHT22;23316;50.718;7.328;2022-07-23T12:56:03;26.20;42.30
37456;DHT22;23316;50.718;7.328;2022-07-23T12:58:41;26.20;42.70
37456;DHT22;23316;50.718;7.328;2022-07-23T13:01:21;26.30;41.40
37456;DHT22;23316;50.718;7.328;2022-07-23T13:04:00;26.30;41.60
37456;DHT22;23316;50.718;7.328;2022-07-23T13:06:29;26.30;41.30
37456;DHT22;23316;50.718;7.328;2022-07-23T13:08:57;26.40;41.30
37456;DHT22;23316;50.718;7.328;2022-07-23T13:11:25;26.40;40.60
37456;DHT22;23316;50.718;7.328;2022-07-23T13:13:53;26.50;40.80
37456;DHT22;23316;50.718;7.328;2022-07-23T13:16:21;26.50;41.90
37456;DHT22;23316;50.718;7.328;2022-07-23T13:18:49;26.60;41.40
37456;DHT22;23316;50.718;7.328;2022-07-23T13:21:17;26.60;40.80
37456;DHT22;23316;50.718;7.328;2022-07-23T13:23:44;26.70;40.30
37456;DHT22;23316;50.718;7.328;2022-07-23T13:26:12;26.70;39.30
37456;DHT22;23316;50.718;7.328;2022-07-23T13:28:39;26.70;40.00
37456;DHT22;23316;50.718;7.328;2022-07-23T13:31:06;26.70;39.70
37456;DHT22;23316;50.718;7.328;2022-07-23T13:33:36;26.70;38.80
37456;DHT22;23316;50.718;7.328;2022-07-23T13:36:04;26.80;40.30
37456;DHT22;23316;50.718;7.328;2022-07-23T13:38:32;26.80;39.90
37456;DHT22;23316;50.718;7.328;2022-07-23T13:41:00;26.80;38.90
37456;DHT22;23316;50.718;7.328;2022-07-23T13:43:29;26.90;39.60
37456;DHT22;23316;50.718;7.328;2022-07-23T13:45:57;26.90;39.70
37456;DHT22;23316;50.718;7.328;2022-07-23T13:48:25;26.90;40.00
37456;DHT22;23316;50.718;7.328;2022-07-23T13:50:56;27.00;39.20
37456;DHT22;23316;50.718;7.328;2022-07-23T13:53:24;27.10;38.70
37456;DHT22;23316;50.718;7.328;2022-07-23T13:55:53;27.10;39.50
37456;DHT22;23316;50.718;7.328;2022-07-23T13:58:22;27.20;39.20
37456;DHT22;23316;50.718;7.328;2022-07-23T14:00:52;27.10;38.80
37456;DHT22;23316;50.718;7.328;2022-07-23T14:03:22;27.10;38.00
37456;DHT22;23316;50.718;7.328;2022-07-23T14:05:52;27.10;37.60
37456;DHT22;23316;50.718;7.328;2022-07-23T14:08:21;27.20;39.10
37456;DHT22;23316;50.718;7.328;2022-07-23T14:10:49;27.20;39.00
37456;DHT22;23316;50.718;7.328;2022-07-23T14:13:16;27.30;39.70
37456;DHT22;23316;50.718;7.328;2022-07-23T14:15:44;27.30;39.10
37456;DHT22;23316;50.718;7.328;2022-07-23T14:18:11;27.30;39.90
37456;DHT22;23316;50.718;7.328;2022-07-23T14:20:39;27.30;39.20
37456;DHT22;23316;50.718;7.328;2022-07-23T14:23:06;27.30;38.50
37456;DHT22;23316;50.718;7.328;2022-07-23T14:25:35;27.30;37.90
37456;DHT22;23316;50.718;7.328;2022-07-23T14:28:02;27.30;38.00
37456;DHT22;23316;50.718;7.328;2022-07-23T14:30:30;27.30;37.90
37456;DHT22;23316;50.718;7.328;2022-07-23T14:32:57;27.30;38.30
37456;DHT22;23316;50.718;7.328;2022-07-23T14:35:25;27.30;38.20
37456;DHT22;23316;50.718;7.328;2022-07-23T14:37:52;27.30;37.90
37456;DHT22;23316;50.718;7.328;2022-07-23T14:40:20;27.30;38.60
37456;DHT22;23316;50.718;7.328;2022-07-23T14:42:49;27.30;38.20
37456;DHT22;23316;50.718;7.328;2022-07-23T14:45:17;27.30;38.10
37456;DHT22;23316;50.718;7.328;2022-07-23T14:47:44;27.20;38.00
37456;DHT22;23316;50.718;7.328;2022-07-23T14:50:12;27.30;38.40
37456;DHT22;23316;50.718;7.328;2022-07-23T14:52:40;27.20;38.20
37456;DHT22;23316;50.718;7.328;2022-07-23T14:55:08;27.30;38.40
37456;DHT22;23316;50.718;7.328;2022-07-23T14:57:35;27.30;38.80
37456;DHT22;23316;50.718;7.328;2022-07-23T15:00:05;27.30;38.00
37456;DHT22;23316;50.718;7.328;2022-07-23T15:02:33;27.20;38.10
37456;DHT22;23316;50.718;7.328;2022-07-23T15:05:01;27.20;38.40
37456;DHT22;23316;50.718;7.328;2022-07-23T15:07:28;27.30;38.70
37456;DHT22;23316;50.718;7.328;2022-07-23T15:09:56;27.30;38.30
37456;DHT22;23316;50.718;7.328;2022-07-23T15:12:24;27.30;38.80
37456;DHT22;23316;50.718;7.328;2022-07-23T15:14:51;27.30;38.60
37456;DHT22;23316;50.718;7.328;2022-07-23T15:17:22;27.30;38.20
37456;DHT22;23316;50.718;7.328;2022-07-23T15:19:58;27.30;38.50
37456;DHT22;23316;50.718;7.328;2022-07-23T15:22:26;27.40;38.20
37456;DHT22;23316;50.718;7.328;2022-07-23T15:24:54;27.40;38.30
37456;DHT22;23316;50.718;7.328;2022-07-23T15:27:21;27.40;37.60
37456;DHT22;23316;50.718;7.328;2022-07-23T15:29:49;27.40;37.20
37456;DHT22;23316;50.718;7.328;2022-07-23T15:32:16;27.30;37.10
37456;DHT22;23316;50.718;7.328;2022-07-23T15:34:45;27.40;37.50
37456;DHT22;23316;50.718;7.328;2022-07-23T15:37:12;27.30;37.90
37456;DHT22;23316;50.718;7.328;2022-07-23T15:39:40;27.30;37.50
37456;DHT22;23316;50.718;7.328;2022-07-23T15:42:08;27.30;37.30
37456;DHT22;23316;50.718;7.328;2022-07-23T15:44:35;27.30;37.80